KGPT

Gulfport-Biloxi International Airport

Gulfport, Mississippi, USA
KGPT 190041Z 1901/1924 15006KT P6SM SCT005 BKN045 FM190400 16008KT 1/2SM FG BKN008 FM191400 20014G24KT 6SM BR VCSH OVC027 WS020/21045KT FM191900 22015KT 3SM -SHRA VCTS OVC019CB FM192200 28014G25KT P6SM OVC021
Issued Valid From Valid To
Jan-19 @ 00:41 UTC
(2 hours ago)
Jan-19 @ 01:00 UTC
(an hour ago)
Jan-20 @ 00:00 UTC
(in 22 hours)
Jan-19 @ 01:00 to Jan-19 @ 04:00
KGPT 190041Z 1901/1924 15006KT P6SM SCT005 BKN045
Wind Visibility Clouds
150° at 6 knots Greater than 6 miles
  • Scattered at 500' AGL
  • Broken at 4,500' AGL
From Jan-19 @ 04:00 to Jan-19 @ 14:00
FM190400 16008KT 1/2SM FG BKN008
Wind Visibility Clouds Conditions
160° at 8 knots 1/2 miles
  • Broken at 800' AGL
  • Fog
From Jan-19 @ 14:00 to Jan-19 @ 19:00
FM191400 20014G24KT 6SM BR VCSH OVC027 WS020/21045KT
Wind Visibility Clouds Conditions
200° at 14 knots
 Gusting to 24 knots
 Wind shear 2,000' AGL from 210° at 45 knots
6 miles
  • Overcast at 2,700' AGL
  • Mist
From Jan-19 @ 19:00 to Jan-19 @ 22:00
FM191900 22015KT 3SM -SHRA VCTS OVC019CB
Wind Visibility Clouds Conditions
220° at 15 knots 3 miles
  • Overcast at 1,900' AGL
  • Light Rain
  • Area Thunderstorm
From Jan-19 @ 22:00 to Jan-20 @ 00:00
FM192200 28014G25KT P6SM OVC021
Wind Visibility Clouds
280° at 14 knots
 Gusting to 25 knots
Greater than 6 miles
  • Overcast at 2,100' AGL
KGPT 190041Z 1901/1924 15006KT P6SM SCT005 BKN045 FM190400 16008KT 1/2SM FG BKN008 FM191400 20014G24KT 6SM BR VCSH OVC027 WS020/21045KT FM191900 22015KT 3SM -SHRA VCTS OVC019CB FM192200 28014G25KT P6SM OVC021
Issued Jan-19 @ 00:41 UTC
(2 hours ago)
Valid From Jan-19 @ 01:00 UTC
(an hour ago)
Valid To Jan-20 @ 00:00 UTC
(in 22 hours)
Jan-19 @ 01:00 - Jan-19 @ 04:00
Wind Visibility
150° at 6 knots Greater than 6 miles
Clouds
  • Scattered at 500' AGL
  • Broken at 4,500' AGL
From Jan-19 @ 04:00 - Jan-19 @ 14:00
Wind Visibility
160° at 8 knots 1/2 miles
Clouds
  • Broken at 800' AGL
Conditions
  • Fog
From Jan-19 @ 14:00 - Jan-19 @ 19:00
Wind Visibility
200° at 14 knots
 Gusting to 24 knots
6 miles
Clouds
  • Overcast at 2,700' AGL
Conditions
  • Mist
From Jan-19 @ 19:00 - Jan-19 @ 22:00
Wind Visibility
220° at 15 knots 3 miles
Clouds
  • Overcast at 1,900' AGL
Conditions
  • Light Rain
  • Area Thunderstorm
From Jan-19 @ 22:00 - Jan-20 @ 00:00
Wind Visibility
280° at 14 knots
 Gusting to 25 knots
Greater than 6 miles
Clouds
  • Overcast at 2,100' AGL